Axiome — FGD9940 — position and weather

sailwx.info

Track history (hours):
 
Tides and Currents Weather Stations Pressure Air Temp Water Temp Dewpoint Dewpoint Depression Visibility Wind Speed Wind Dir Waves Ship Positions

Axiome

Last reported at 2018-Jun-24 17:02 UTC. Time now 2018-Jun-25 01:42 UTC.
Position N 51°08' E 002°44'.

Length 10 m.

Type: Sailing vessel. MMSI: 227613080.

Date/timePositionNaut miles runAvg speedWind from/ knotsBaromVisibWave heightAir tempDewpointWater temp
2018-Jun-24 17:02N 51°08' E 002°44'0 0.7
2018-Jun-24 16:55N 51°08' E 002°44'0 0.2
2018-Jun-24 16:28N 51°09' E 002°44'0 0.4
2018-Jun-24 16:00N 51°09' E 002°44'1 2.4
2018-Jun-24 15:29N 51°10' E 002°43'3 6.6
2018-Jun-24 15:00N 51°12' E 002°47'4 7.7
2018-Jun-24 14:26N 51°14' E 002°53'3 6.7
2018-Jun-24 13:56N 51°16' E 002°57'19 5.4
2018-Jun-24 10:25N 51°24' E 003°24'2 4.7
2018-Jun-24 09:59N 51°24' E 003°27'2 3.9
2018-Jun-24 09:28N 51°25' E 003°31'1 2.9
2018-Jun-24 08:59N 51°25' E 003°33'47 1.0
2018-Jun-22 11:06N 51°49' E 004°39'0 0.1
2018-Jun-22 11:01N 51°49' E 004°39'2 3.0
2018-Jun-22 10:28N 51°50' E 004°40'1 3.0
2018-Jun-22 09:58N 51°52' E 004°39'29 0.8
2018-Jun-20 23:31N 52°20' E 004°49'1 3.3
2018-Jun-20 23:20N 52°20' E 004°50'1 0.9
2018-Jun-20 22:29N 52°20' E 004°51'2 4.0
2018-Jun-20 21:55N 52°23' E 004°52'1 1.5
2018-Jun-20 21:19N 52°23' E 004°53'0 0.0
2018-Jun-20 20:55N 52°23' E 004°53'0 0.0
2018-Jun-20 20:28N 52°23' E 004°53'0 0.3
2018-Jun-20 20:00N 52°23' E 004°53'0 0.8
2018-Jun-20 19:30N 52°23' E 004°54'1 1.1
2018-Jun-20 19:00N 52°23' E 004°54'0 0.0
2018-Jun-20 18:30N 52°23' E 004°54'0 0.0
2018-Jun-20 18:00N 52°23' E 004°54'0 0.0
2018-Jun-19 21:28N 52°23' E 004°54'0 0.0
2018-Jun-19 20:58N 52°23' E 004°54'0 0.0
2018-Jun-18 15:15N 52°23' E 004°54'0 0.0
2018-Jun-18 15:00N 52°23' E 004°54'2 3.4
2018-Jun-18 14:30N 52°24' E 004°53'2 4.8
2018-Jun-18 14:00N 52°25' E 004°49'5 4.9
2018-Jun-18 12:56N 52°27' E 004°41'2 5.1
2018-Jun-18 12:30N 52°28' E 004°38'1 2.8
2018-Jun-18 12:00N 52°28' E 004°35'0 0.0
2018-Jun-18 11:18N 52°28' E 004°35'1 2.4
2018-Jun-18 11:00N 52°28' E 004°34'0 0.5
2018-Jun-18 10:25N 52°28' E 004°34'0 0.0
2018-Jun-18 09:55N 52°28' E 004°34'0 0.0
2018-Jun-18 09:09N 52°28' E 004°34'0 0.0
2018-Jun-18 08:57N 52°28' E 004°34'0 0.0
2018-Jun-17 17:27N 52°28' E 004°34'0 0.0
2018-Jun-17 17:00N 52°28' E 004°34'0 0.2
2018-Jun-17 16:29N 52°27' E 004°34'1 1.7
2018-Jun-17 16:00N 52°28' E 004°32'2 4.2
2018-Jun-17 15:29N 52°26' E 004°30'5 6.1
2018-Jun-17 14:39N 52°22' E 004°27'1 6.9
2018-Jun-17 14:29N 52°21' E 004°26'3 6.7
2018-Jun-17 14:00N 52°18' E 004°23'3 6.6
2018-Jun-17 13:30N 52°15' E 004°21'3 6.6
2018-Jun-17 13:00N 52°12' E 004°18'3 6.5
2018-Jun-17 12:30N 52°09' E 004°16'3 5.7
2018-Jun-17 12:00N 52°06' E 004°15'1 1.9
2018-Jun-17 11:28N 52°06' E 004°16'0 0.0
2018-Jun-16 18:49N 52°06' E 004°16'0 0.0
2018-Jun-16 18:28N 52°06' E 004°16'0 0.0
2018-Jun-16 17:58N 52°06' E 004°16'0 0.0
2018-Jun-16 17:28N 52°06' E 004°16'0 0.1
2018-Jun-16 16:57N 52°06' E 004°16'1 1.7
2018-Jun-16 16:30N 52°06' E 004°15'3 5.8
2018-Jun-16 16:00N 52°05' E 004°11'5 9.6
2018-Jun-16 15:30N 52°02' E 004°04'4 7.5
2018-Jun-16 15:00N 52°00' E 003°59'47 5.9
2018-Jun-16 07:02N 51°29' E 003°03'0 6.4
2018-Jun-16 07:00N 51°29' E 003°03'4 6.5
2018-Jun-16 06:27N 51°27' E 002°58'3 6.1
2018-Jun-16 06:00N 51°26' E 002°54'2 4.0
2018-Jun-16 05:30N 51°24' E 002°54'3 6.2
2018-Jun-16 04:58N 51°21' E 002°53'3 6.4
2018-Jun-16 04:30N 51°18' E 002°53'3 6.2
2018-Jun-16 04:00N 51°15' E 002°55'0 0.0
2018-Jun-15 14:33N 51°14' E 002°55'0 2.8
2018-Jun-15 14:29N 51°15' E 002°55'2 3.4
2018-Jun-15 14:00N 51°14' E 002°52'4 7.1
2018-Jun-15 13:30N 51°12' E 002°47'4 7.0
2018-Jun-15 12:59N 51°11' E 002°42'4 8.2
2018-Jun-15 12:29N 51°09' E 002°36'4 8.1
2018-Jun-15 12:00N 51°07' E 002°31'4 7.0
2018-Jun-15 11:28N 51°05' E 002°26'3 5.3
2018-Jun-15 10:58N 51°04' E 002°22'1 2.0
2018-Jun-15 10:25N 51°03' E 002°22'  
Track history (hours):
 
Tides and Currents Weather Stations Pressure Air Temp Water Temp Dewpoint Dewpoint Depression Visibility Wind Speed Wind Dir Waves Ship Positions

Axiome

Last reported at 2018-Jun-24 17:02 UTC. Time now 2018-Jun-25 01:42 UTC.
Position N 51°08' E 002°44'.

Length 10 m.

Type: Sailing vessel. MMSI: 227613080.

Date/timePositionNaut miles runAvg speedWind from/ knotsBaromVisibWave heightAir tempDewpointWater temp
2018-Jun-24 17:02N 51°08' E 002°44'0 0.7
2018-Jun-24 16:55N 51°08' E 002°44'0 0.2
2018-Jun-24 16:28N 51°09' E 002°44'0 0.4
2018-Jun-24 16:00N 51°09' E 002°44'1 2.4
2018-Jun-24 15:29N 51°10' E 002°43'3 6.6
2018-Jun-24 15:00N 51°12' E 002°47'4 7.7
2018-Jun-24 14:26N 51°14' E 002°53'3 6.7
2018-Jun-24 13:56N 51°16' E 002°57'19 5.4
2018-Jun-24 10:25N 51°24' E 003°24'2 4.7
2018-Jun-24 09:59N 51°24' E 003°27'2 3.9
2018-Jun-24 09:28N 51°25' E 003°31'1 2.9
2018-Jun-24 08:59N 51°25' E 003°33'47 1.0
2018-Jun-22 11:06N 51°49' E 004°39'0 0.1
2018-Jun-22 11:01N 51°49' E 004°39'2 3.0
2018-Jun-22 10:28N 51°50' E 004°40'1 3.0
2018-Jun-22 09:58N 51°52' E 004°39'29 0.8
2018-Jun-20 23:31N 52°20' E 004°49'1 3.3
2018-Jun-20 23:20N 52°20' E 004°50'1 0.9
2018-Jun-20 22:29N 52°20' E 004°51'2 4.0
2018-Jun-20 21:55N 52°23' E 004°52'1 1.5
2018-Jun-20 21:19N 52°23' E 004°53'0 0.0
2018-Jun-20 20:55N 52°23' E 004°53'0 0.0
2018-Jun-20 20:28N 52°23' E 004°53'0 0.3
2018-Jun-20 20:00N 52°23' E 004°53'0 0.8
2018-Jun-20 19:30N 52°23' E 004°54'1 1.1
2018-Jun-20 19:00N 52°23' E 004°54'0 0.0
2018-Jun-20 18:30N 52°23' E 004°54'0 0.0
2018-Jun-20 18:00N 52°23' E 004°54'0 0.0
2018-Jun-19 21:28N 52°23' E 004°54'0 0.0
2018-Jun-19 20:58N 52°23' E 004°54'0 0.0
2018-Jun-18 15:15N 52°23' E 004°54'0 0.0
2018-Jun-18 15:00N 52°23' E 004°54'2 3.4
2018-Jun-18 14:30N 52°24' E 004°53'2 4.8
2018-Jun-18 14:00N 52°25' E 004°49'5 4.9
2018-Jun-18 12:56N 52°27' E 004°41'2 5.1
2018-Jun-18 12:30N 52°28' E 004°38'1 2.8
2018-Jun-18 12:00N 52°28' E 004°35'0 0.0
2018-Jun-18 11:18N 52°28' E 004°35'1 2.4
2018-Jun-18 11:00N 52°28' E 004°34'0 0.5
2018-Jun-18 10:25N 52°28' E 004°34'0 0.0
2018-Jun-18 09:55N 52°28' E 004°34'0 0.0
2018-Jun-18 09:09N 52°28' E 004°34'0 0.0
2018-Jun-18 08:57N 52°28' E 004°34'0 0.0
2018-Jun-17 17:27N 52°28' E 004°34'0 0.0
2018-Jun-17 17:00N 52°28' E 004°34'0 0.2
2018-Jun-17 16:29N 52°27' E 004°34'1 1.7
2018-Jun-17 16:00N 52°28' E 004°32'2 4.2
2018-Jun-17 15:29N 52°26' E 004°30'5 6.1
2018-Jun-17 14:39N 52°22' E 004°27'1 6.9
2018-Jun-17 14:29N 52°21' E 004°26'3 6.7
2018-Jun-17 14:00N 52°18' E 004°23'3 6.6
2018-Jun-17 13:30N 52°15' E 004°21'3 6.6
2018-Jun-17 13:00N 52°12' E 004°18'3 6.5
2018-Jun-17 12:30N 52°09' E 004°16'3 5.7
2018-Jun-17 12:00N 52°06' E 004°15'1 1.9
2018-Jun-17 11:28N 52°06' E 004°16'0 0.0
2018-Jun-16 18:49N 52°06' E 004°16'0 0.0
2018-Jun-16 18:28N 52°06' E 004°16'0 0.0
2018-Jun-16 17:58N 52°06' E 004°16'0 0.0
2018-Jun-16 17:28N 52°06' E 004°16'0 0.1
2018-Jun-16 16:57N 52°06' E 004°16'1 1.7
2018-Jun-16 16:30N 52°06' E 004°15'3 5.8
2018-Jun-16 16:00N 52°05' E 004°11'5 9.6
2018-Jun-16 15:30N 52°02' E 004°04'4 7.5
2018-Jun-16 15:00N 52°00' E 003°59'47 5.9
2018-Jun-16 07:02N 51°29' E 003°03'0 6.4
2018-Jun-16 07:00N 51°29' E 003°03'4 6.5
2018-Jun-16 06:27N 51°27' E 002°58'3 6.1
2018-Jun-16 06:00N 51°26' E 002°54'2 4.0
2018-Jun-16 05:30N 51°24' E 002°54'3 6.2
2018-Jun-16 04:58N 51°21' E 002°53'3 6.4
2018-Jun-16 04:30N 51°18' E 002°53'3 6.2
2018-Jun-16 04:00N 51°15' E 002°55'0 0.0
2018-Jun-15 14:33N 51°14' E 002°55'0 2.8
2018-Jun-15 14:29N 51°15' E 002°55'2 3.4
2018-Jun-15 14:00N 51°14' E 002°52'4 7.1
2018-Jun-15 13:30N 51°12' E 002°47'4 7.0
2018-Jun-15 12:59N 51°11' E 002°42'4 8.2
2018-Jun-15 12:29N 51°09' E 002°36'4 8.1
2018-Jun-15 12:00N 51°07' E 002°31'4 7.0
2018-Jun-15 11:28N 51°05' E 002°26'3 5.3
2018-Jun-15 10:58N 51°04' E 002°22'1 2.0
2018-Jun-15 10:25N 51°03' E 002°22'  

Dump ship's entire track history